Time;durP1;ratioP1;P1;durP2;ratioP2;P2;SDS_P1;SDS_P2;PMS_P1;PMS_P2;Temp;Humidity;BMP_temperature;BMP_pressure;BME280_temperature;BME280_humidity;BME280_pressure;Samples;Min_cycle;Max_cycle;Signal;HPM_P1;HPM_P2
2022/11/06 00:02:34;;;;;;;18.52;11.07;;;;;;;20.75;65.38;99201.91;4908313;29;20079;-64
2022/11/06 00:08:35;;;;;;;19.50;10.95;;;;;;;20.52;66.00;99195.81;4925541;29;20047;-63
2022/11/06 00:11:23;;;;;;;;;;;;;;;20.62;65.82;99191.50;4927765;29;20048;-66
2022/11/06 00:14:14;;;;;;;15.77;10.55;;;;;;;20.84;65.18;99199.44;4926654;29;19926;-62
2022/11/06 00:17:09;;;;;;;18.52;11.43;;;;;;;20.82;65.14;99194.25;4926246;29;20043;-63
2022/11/06 00:19:45;;;;;;;18.35;11.23;;;;;;;20.58;66.06;99193.06;4926721;29;20040;-65
2022/11/06 00:22:36;;;;;;;21.30;11.00;;;;;;;20.53;66.12;99180.25;4926474;29;20138;-64
2022/11/06 00:25:18;;;;;;;18.45;11.23;;;;;;;20.71;65.90;99174.34;4925811;29;20090;-65
2022/11/06 00:28:07;;;;;;;20.80;12.07;;;;;;;20.89;65.25;99177.66;4927001;29;20052;-63
2022/11/06 00:30:50;;;;;;;18.88;11.07;;;;;;;20.83;65.09;99179.53;4931632;29;20035;-65
2022/11/06 00:33:40;;;;;;;22.13;11.55;;;;;;;20.61;66.03;99168.84;4937445;29;20431;-65
2022/11/06 00:36:31;;;;;;;16.92;11.63;;;;;;;20.68;65.54;99171.34;4925887;29;20406;-64
2022/11/06 00:39:13;;;;;;;18.77;11.98;;;;;;;20.69;65.76;99172.94;4915794;29;20043;-64
2022/11/06 00:42:02;;;;;;;17.75;11.05;;;;;;;20.64;65.87;99186.59;4937252;29;20067;-65
2022/11/06 00:44:45;;;;;;;17.77;10.38;;;;;;;20.75;65.42;99182.81;4933765;29;20067;-65
2022/11/06 00:47:34;;;;;;;18.27;11.13;;;;;;;20.62;65.67;99173.22;4934290;29;20063;-64
2022/11/06 00:50:17;;;;;;;22.38;12.38;;;;;;;20.99;64.96;99171.38;4935281;29;20048;-65
2022/11/06 00:53:06;;;;;;;18.17;11.30;;;;;;;20.93;64.91;99176.00;4935789;29;20067;-65
2022/11/06 00:55:48;;;;;;;19.48;11.50;;;;;;;20.76;65.44;99176.25;4935933;29;20047;-65
2022/11/06 00:58:40;;;;;;;19.80;10.50;;;;;;;21.07;64.54;99170.84;4933047;28;20545;-65
2022/11/06 01:01:33;;;;;;;20.70;12.02;;;;;;;20.80;65.00;99185.53;4929545;29;20047;-65
2022/11/06 01:04:25;;;;;;;20.75;11.52;;;;;;;20.96;65.10;99177.38;4926486;29;20047;-64
2022/11/06 01:07:14;;;;;;;18.98;11.07;;;;;;;20.79;65.31;99178.44;4909718;29;20111;-64
2022/11/06 01:09:56;;;;;;;19.27;11.95;;;;;;;21.02;64.95;99182.56;4934433;29;20047;-64
2022/11/06 01:12:51;;;;;;;23.38;11.13;;;;;;;21.20;64.42;99186.66;4932441;29;20549;-64
2022/11/06 01:15:26;;;;;;;19.33;11.30;;;;;;;21.06;64.59;99193.78;4926456;29;20115;-64
2022/11/06 01:18:15;;;;;;;27.08;11.98;;;;;;;21.12;64.30;99192.69;4925844;29;20111;-63
2022/11/06 01:20:57;;;;;;;19.92;12.00;;;;;;;21.09;64.57;99199.50;4926815;29;20055;-65
2022/11/06 01:23:53;;;;;;;23.38;12.38;;;;;;;21.21;64.36;99193.78;4926741;29;20723;-64
2022/11/06 01:26:30;;;;;;;18.75;11.88;;;;;;;20.99;64.59;99194.03;4927139;29;20098;-65
2022/11/06 01:29:45;;;;;;;25.85;12.60;;;;;;;21.05;64.46;99194.84;4922551;29;20059;-64
2022/11/06 01:32:22;;;;;;;21.92;13.50;;;;;;;21.09;64.25;99204.97;4903147;29;20059;-64
2022/11/06 01:35:11;;;;;;;24.70;13.50;;;;;;;21.22;63.71;99200.88;4912088;29;20122;-63
2022/11/06 01:37:53;;;;;;;20.25;12.18;;;;;;;21.18;64.39;99202.50;4928963;29;20411;-63
2022/11/06 01:40:44;;;;;;;22.52;13.38;;;;;;;21.07;64.45;99207.13;4929353;29;20083;-63
2022/11/06 01:43:49;;;;;;;22.88;12.23;;;;;;;21.08;64.21;99219.69;4929538;29;20360;-64
2022/11/06 01:46:38;;;;;;;20.90;12.38;;;;;;;21.07;64.08;99218.03;4930086;29;20750;-64
2022/11/06 01:49:27;;;;;;;19.92;12.75;;;;;;;21.00;64.19;99222.97;4946560;29;20051;-64
2022/11/06 01:52:12;;;;;;;17.40;10.63;;;;;;;21.05;63.91;99216.69;4930059;29;20062;-63
2022/11/06 01:55:07;;;;;;;19.45;12.02;;;;;;;20.96;63.70;99221.88;4912512;29;20067;-64
2022/11/06 01:57:51;;;;;;;20.05;11.35;;;;;;;21.15;63.80;99226.78;4929128;29;20055;-64
2022/11/06 02:00:47;;;;;;;20.30;11.40;;;;;;;21.05;63.47;99227.59;4930040;28;20043;-64
2022/11/06 02:03:23;;;;;;;18.23;10.60;;;;;;;21.01;63.35;99231.97;4929560;29;20432;-64
2022/11/06 02:06:19;;;;;;;16.53;10.00;;;;;;;21.17;62.72;99225.44;4927326;29;20056;-63
2022/11/06 02:08:54;;;;;;;19.90;9.50;;;;;;;20.82;62.99;99227.00;4928782;29;20462;-65
2022/11/06 02:12:02;;;;;;;19.15;9.80;;;;;;;21.00;62.78;99230.31;4928837;29;20063;-64
2022/11/06 02:15:07;;;;;;;15.10;8.80;;;;;;;20.92;63.02;99245.28;4926568;29;20154;-64
2022/11/06 02:18:16;;;;;;;18.45;9.15;;;;;;;20.97;62.85;99244.50;4929435;29;20047;-65
2022/11/06 02:21:08;;;;;;;22.63;10.43;;;;;;;20.82;62.62;99248.81;4929626;29;20051;-64
2022/11/06 02:24:08;;;;;;;15.27;9.52;;;;;;;20.84;62.60;99246.63;4929556;29;20063;-63
2022/11/06 02:27:24;;;;;;;20.75;10.90;;;;;;;21.12;62.04;99247.25;4929502;29;20051;-64
2022/11/06 02:30:09;;;;;;;16.50;10.23;;;;;;;21.12;61.76;99261.72;4928799;29;20059;-64
2022/11/06 02:33:11;;;;;;;17.80;11.00;;;;;;;21.44;61.43;99248.97;4929353;29;20052;-63
2022/11/06 02:36:05;;;;;;;17.67;9.63;;;;;;;21.36;60.49;99260.38;4928560;29;20063;-65
2022/11/06 02:39:01;;;;;;;18.92;10.10;;;;;;;21.47;60.55;99259.34;4928901;29;20077;-65
2022/11/06 02:41:48;;;;;;;20.52;10.07;;;;;;;21.63;59.83;99265.59;4925979;29;20130;-64
2022/11/06 02:44:41;;;;;;;17.05;10.00;;;;;;;21.89;59.30;99260.97;4927136;29;20051;-64
2022/11/06 02:47:27;;;;;;;16.38;10.07;;;;;;;21.70;59.63;99271.63;4925533;29;20064;-65
2022/11/06 02:50:25;;;;;;;17.67;9.77;;;;;;;21.64;59.92;99273.53;4927342;29;20051;-64
2022/11/06 02:53:09;;;;;;;16.30;9.00;;;;;;;21.60;59.62;99280.66;4926669;29;20040;-65
2022/11/06 02:56:15;;;;;;;16.23;9.00;;;;;;;21.73;59.47;99275.75;4928001;29;20043;-65
2022/11/06 02:59:04;;;;;;;18.48;9.25;;;;;;;21.71;59.10;99270.53;4928082;28;20056;-65
2022/11/06 03:01:58;;;;;;;17.70;9.00;;;;;;;21.78;59.04;99278.44;4943724;29;20050;-63
2022/11/06 03:04:54;;;;;;;20.38;8.13;;;;;;;21.69;59.22;99279.00;4922334;29;20744;-65
2022/11/06 03:07:53;;;;;;;15.23;7.72;;;;;;;21.81;58.63;99286.13;4926457;29;20067;-65
2022/11/06 03:10:45;;;;;;;13.45;7.57;;;;;;;21.83;58.39;99281.19;4927289;29;20130;-64
2022/11/06 03:13:43;;;;;;;13.73;7.93;;;;;;;22.20;58.38;99290.97;4928497;29;20055;-64
2022/11/06 03:17:06;;;;;;;13.63;7.43;;;;;;;22.09;59.07;99299.19;4924268;29;20071;-64
2022/11/06 03:19:53;;;;;;;11.98;7.35;;;;;;;21.91;58.71;99294.28;4910788;29;20044;-64
2022/11/06 03:23:02;;;;;;;17.77;8.40;;;;;;;22.10;58.09;99298.09;4938690;29;20051;-64
2022/11/06 03:25:51;;;;;;;14.95;8.52;;;;;;;22.36;57.49;99300.00;4934145;29;20038;-65
2022/11/06 03:28:59;;;;;;;12.48;7.82;;;;;;;22.59;57.02;99306.78;4923350;29;20078;-63
2022/11/06 03:31:57;;;;;;;13.18;7.85;;;;;;;23.00;55.71;99307.41;4937398;29;20531;-63
2022/11/06 03:35:13;;;;;;;13.23;7.68;;;;;;;23.14;55.19;99312.28;4933895;29;20412;-64
2022/11/06 03:38:11;;;;;;;12.23;6.65;;;;;;;23.27;53.81;99314.41;4934573;29;20058;-64
2022/11/06 03:41:22;;;;;;;18.95;7.65;;;;;;;23.16;53.98;99319.16;4932914;29;20058;-64
2022/11/06 03:44:02;;;;;;;14.60;7.85;;;;;;;23.42;53.35;99319.78;4927881;29;20063;-65
2022/11/06 03:47:24;;;;;;;20.38;7.32;;;;;;;23.24;53.02;99324.03;4928228;29;20138;-64
2022/11/06 03:50:24;;;;;;;11.43;7.57;;;;;;;23.89;52.56;99327.72;4909195;29;20048;-65
2022/11/06 03:53:27;;;;;;;15.55;9.00;;;;;;;23.84;52.62;99326.63;4922893;28;20047;-65
2022/11/06 03:56:23;;;;;;;17.03;8.37;;;;;;;23.83;52.10;99324.19;4928564;29;20040;-65
2022/11/06 03:59:17;;;;;;;35.92;9.38;;;;;;;24.31;50.64;99323.50;4928298;28;20342;-65
2022/11/06 04:02:07;;;;;;;18.38;8.35;;;;;;;25.09;49.61;99325.06;4899742;29;20062;-65
2022/11/06 04:05:25;;;;;;;22.00;8.60;;;;;;;25.09;49.26;99321.50;4925276;29;20377;-65
2022/11/06 04:14:32;;;;;;;19.10;7.00;;;;;;;26.07;46.63;99320.88;4926836;29;20055;-64
2022/11/06 04:17:23;;;;;;;13.35;7.22;;;;;;;26.27;47.53;99316.94;4926169;29;20059;-64
2022/11/06 04:20:09;;;;;;;14.40;7.28;;;;;;;26.49;46.93;99330.03;4928089;29;20062;-64
2022/11/06 04:23:08;;;;;;;15.20;6.85;;;;;;;26.51;46.13;99334.09;4926236;29;20888;-64
2022/11/06 04:29:45;;;;;;;19.70;6.30;;;;;;;25.95;45.37;99333.19;4914915;29;20142;-65
2022/11/06 04:32:33;;;;;;;14.27;6.45;;;;;;;26.68;44.06;99332.72;4927403;29;20078;-64
2022/11/06 04:35:53;;;;;;;12.73;5.80;;;;;;;26.61;44.55;99333.09;4930844;29;20105;-66
2022/11/06 04:39:06;;;;;;;10.43;5.88;;;;;;;26.52;43.35;99321.13;4929844;29;20119;-63
2022/11/06 04:42:17;;;;;;;11.60;5.93;;;;;;;27.38;42.98;99330.69;4920978;29;20573;-65
2022/11/06 04:45:31;;;;;;;17.42;5.93;;;;;;;27.32;42.45;99330.00;4916157;29;20047;-65
2022/11/06 04:48:15;;;;;;;12.98;6.68;;;;;;;26.84;42.42;99319.44;4931993;29;20075;-64
2022/11/06 04:51:07;;;;;;;12.38;6.10;;;;;;;27.19;41.66;99325.31;4935515;29;20051;-63
2022/11/06 04:53:49;;;;;;;12.27;5.47;;;;;;;27.11;42.25;99313.91;4932834;29;20048;-65
2022/11/06 04:56:41;;;;;;;13.07;5.18;;;;;;;26.99;42.49;99316.38;4936852;29;20383;-64
2022/11/06 04:59:30;;;;;;;12.82;6.13;;;;;;;27.42;42.30;99318.75;4902939;28;20472;-64
2022/11/06 05:02:12;;;;;;;11.50;5.90;;;;;;;27.48;41.44;99319.47;4931563;29;20303;-64
2022/11/06 05:05:01;;;;;;;15.98;5.60;;;;;;;27.66;42.01;99306.59;4931952;29;20051;-65
2022/11/06 05:07:43;;;;;;;15.05;5.45;;;;;;;27.68;44.33;99315.38;4907740;29;20047;-64
2022/11/06 05:10:33;;;;;;;13.10;6.70;;;;;;;27.47;42.87;99315.88;4932885;29;20142;-66
2022/11/06 05:13:16;;;;;;;12.32;6.53;;;;;;;27.54;42.44;99319.00;4930568;29;20440;-64
2022/11/06 05:16:06;;;;;;;15.07;5.90;;;;;;;27.94;41.26;99312.03;4933096;29;20103;-64
2022/11/06 05:18:48;;;;;;;16.20;6.40;;;;;;;27.90;40.28;99304.38;4928399;29;20118;-64
2022/11/06 05:24:55;;;;;;;13.50;5.40;;;;;;;27.99;41.07;99292.56;4871784;29;20118;-64
2022/11/06 05:27:37;;;;;;;11.57;5.65;;;;;;;27.74;40.80;99292.06;4928427;29;20143;-63
2022/11/06 05:30:27;;;;;;;15.05;6.13;;;;;;;27.51;41.45;99286.53;4930162;29;20472;-68
2022/11/06 05:33:16;;;;;;;13.75;5.93;;;;;;;27.95;41.01;99291.59;4929045;29;20075;-62
2022/11/06 05:36:05;;;;;;;16.77;6.40;;;;;;;28.37;40.80;99284.66;4901789;29;20122;-61
2022/11/06 05:38:54;;;;;;;14.18;5.30;;;;;;;28.33;40.61;99283.66;4930850;29;20055;-64
2022/11/06 05:41:36;;;;;;;17.40;6.13;;;;;;;28.50;41.16;99282.91;4926952;29;20064;-60
2022/11/06 05:44:25;;;;;;;20.60;6.30;;;;;;;28.53;39.73;99279.56;4929789;29;20646;-59
2022/11/06 05:47:07;;;;;;;14.63;6.15;;;;;;;28.66;40.90;99278.63;4931018;29;20051;-58
2022/11/06 05:49:56;;;;;;;15.63;6.85;;;;;;;28.72;40.37;99281.22;4932029;29;20090;-60
2022/11/06 05:52:38;;;;;;;19.55;7.03;;;;;;;28.81;40.69;99290.34;4927689;29;20059;-59
2022/11/06 05:55:27;;;;;;;18.88;7.50;;;;;;;28.97;39.71;99276.88;4900686;29;20067;-62
2022/11/06 05:58:10;;;;;;;16.08;7.30;;;;;;;29.44;42.90;99269.63;4920142;29;20044;-61
2022/11/06 06:01:05;;;;;;;20.20;6.90;;;;;;;29.59;41.32;99265.53;4907825;29;20063;-65
2022/11/06 06:03:41;;;;;;;18.13;7.60;;;;;;;29.19;40.28;99264.91;4928238;29;20051;-60
2022/11/06 06:06:30;;;;;;;12.10;7.13;;;;;;;29.23;40.53;99252.06;4930089;29;20047;-58
2022/11/06 06:09:12;;;;;;;20.27;8.05;;;;;;;29.56;39.94;99246.84;4920088;29;20106;-61
2022/11/06 06:12:01;;;;;;;17.92;7.95;;;;;;;29.78;39.51;99234.78;4912219;29;20063;-62
2022/11/06 06:14:44;;;;;;;22.33;9.45;;;;;;;29.56;38.67;99230.25;4934276;29;20051;-62
2022/11/06 06:17:33;;;;;;;21.10;9.57;;;;;;;29.07;40.03;99233.16;4933740;28;20055;-62
2022/11/06 06:20:17;;;;;;;21.90;9.55;;;;;;;29.11;38.36;99227.00;4945061;29;20057;-60
2022/11/06 06:26:24;;;;;;;15.60;9.10;;;;;;;29.90;39.14;99213.91;4792843;24;20104;-59
2022/11/06 06:29:13;;;;;;;16.85;9.65;;;;;;;29.77;38.83;99204.66;4797345;29;20070;-60
2022/11/06 06:31:55;;;;;;;16.35;9.18;;;;;;;30.24;40.10;99202.69;4799007;29;20065;-60
2022/11/06 06:34:44;;;;;;;26.13;10.73;;;;;;;30.48;39.50;99206.84;4791247;29;20146;-59
2022/11/06 06:37:33;;;;;;;15.45;9.52;;;;;;;29.46;37.62;99205.69;4775969;29;20054;-60
2022/11/06 06:40:25;;;;;;;14.93;8.48;;;;;;;30.54;40.53;99196.41;4559129;29;10001381;-60
2022/11/06 06:43:07;;;;;;;24.60;9.68;;;;;;;29.84;37.20;99199.44;4794946;29;20259;-59
2022/11/06 06:45:56;;;;;;;17.20;9.82;;;;;;;30.79;39.33;99197.34;4794840;29;21961;-59
2022/11/06 06:48:45;;;;;;;17.67;9.45;;;;;;;30.59;36.87;99188.69;4795990;29;20139;-59
2022/11/06 06:51:34;;;;;;;18.45;9.40;;;;;;;30.57;39.47;99190.16;4768858;29;20059;-57
2022/11/06 06:54:16;;;;;;;18.45;11.23;;;;;;;30.62;38.75;99182.47;4795950;29;20058;-52
2022/11/06 06:57:07;;;;;;;21.95;9.63;;;;;;;30.56;40.57;99180.25;4793725;29;20043;-54
2022/11/06 06:59:51;;;;;;;25.55;11.23;;;;;;;30.61;37.42;99169.78;4793808;29;20055;-54
2022/11/06 07:02:41;;;;;;;29.33;11.27;;;;;;;30.82;39.16;99160.66;4794664;29;20063;-55
2022/11/06 07:05:37;;;;;;;28.70;11.07;;;;;;;30.62;40.01;99160.31;4794323;29;20058;-57
2022/11/06 07:08:13;;;;;;;31.20;15.77;;;;;;;30.34;37.70;99160.00;4794770;29;20094;-49
2022/11/06 07:11:05;;;;;;;33.85;17.73;;;;;;;30.08;39.40;99151.00;4795803;29;20061;-52
2022/11/06 07:13:49;;;;;;;37.88;17.20;;;;;;;30.11;38.99;99156.69;4795254;29;20134;-60
2022/11/06 07:16:41;;;;;;;34.65;15.57;;;;;;;30.00;41.34;99149.88;4795647;29;20062;-54
2022/11/06 07:19:36;;;;;;;28.27;13.95;;;;;;;30.09;42.27;99136.81;4463450;29;9999708;-57
2022/11/06 07:22:29;;;;;;;37.53;17.25;;;;;;;29.06;43.22;99136.78;4792058;29;20567;-59
2022/11/06 07:25:17;;;;;;;32.33;15.18;;;;;;;29.65;43.57;99125.91;4790784;29;20051;-57
2022/11/06 07:28:08;;;;;;;36.47;17.13;;;;;;;29.82;42.82;99125.06;4793968;29;20431;-61
2022/11/06 07:30:50;;;;;;;29.42;14.85;;;;;;;28.90;43.87;99122.66;4779593;29;20800;-57
2022/11/06 07:33:46;;;;;;;25.58;15.60;;;;;;;29.26;44.40;99127.03;4792368;29;20550;-55
2022/11/06 07:36:28;;;;;;;36.65;15.75;;;;;;;28.82;45.45;99117.94;4793929;29;20371;-57
2022/11/06 07:39:17;;;;;;;24.77;14.45;;;;;;;28.78;44.35;99111.47;4791431;29;20438;-61
2022/11/06 07:41:59;;;;;;;24.77;14.48;;;;;;;29.38;44.25;99102.25;4792500;29;20051;-62
2022/11/06 07:45:02;;;;;;;29.92;14.15;;;;;;;28.95;44.92;99099.56;4778352;29;20547;-61
2022/11/06 07:47:44;;;;;;;28.70;13.93;;;;;;;29.20;44.59;99081.38;4792614;29;20054;-58
2022/11/06 07:50:39;;;;;;;25.08;14.15;;;;;;;29.17;44.66;99087.53;4793321;29;20086;-59
2022/11/06 07:53:21;;;;;;;30.35;13.30;;;;;;;29.09;44.44;99087.19;4792687;29;20051;-55
2022/11/06 07:56:10;;;;;;;25.95;11.82;;;;;;;28.86;44.35;99083.81;4793392;29;20051;-58
2022/11/06 07:58:59;;;;;;;20.20;9.90;;;;;;;28.86;45.45;99083.00;4793974;29;20096;-57
2022/11/06 08:01:41;;;;;;;23.83;12.75;;;;;;;28.79;45.71;99074.41;4792299;29;20479;-59
2022/11/06 08:04:30;;;;;;;26.75;12.35;;;;;;;29.00;45.59;99067.03;4794303;29;20688;-60
2022/11/06 08:07:14;;;;;;;26.45;12.23;;;;;;;28.99;45.27;99064.63;4772951;29;20747;-61
2022/11/06 08:10:04;;;;;;;25.55;10.52;;;;;;;28.45;45.24;99067.72;4792435;29;20050;-59
2022/11/06 08:12:53;;;;;;;32.70;13.40;;;;;;;28.83;45.92;99061.56;4787949;29;20528;-60
2022/11/06 08:15:35;;;;;;;28.20;11.73;;;;;;;28.76;45.35;99058.47;4789217;29;20527;-61
2022/11/06 08:18:24;;;;;;;31.42;11.10;;;;;;;28.76;46.78;99052.94;4791834;29;20090;-61
2022/11/06 08:21:06;;;;;;;23.90;10.63;;;;;;;28.43;46.73;99050.66;4790585;29;20063;-61
2022/11/06 08:23:55;;;;;;;24.98;11.45;;;;;;;28.87;45.72;99040.41;4795577;29;20096;-61
2022/11/06 08:26:37;;;;;;;19.90;9.10;;;;;;;28.49;45.54;99030.84;4793583;29;20051;-59
2022/11/06 08:29:26;;;;;;;27.30;9.23;;;;;;;28.56;45.67;99024.06;4796605;29;20091;-61
2022/11/06 08:32:08;;;;;;;20.33;9.10;;;;;;;28.61;45.97;99021.94;4798054;29;20050;-61
2022/11/06 08:34:57;;;;;;;21.40;10.03;;;;;;;28.56;46.22;99010.25;4463890;29;10000053;-58
2022/11/06 08:37:46;;;;;;;19.98;9.25;;;;;;;28.45;46.08;99006.97;4801267;29;20661;-60
2022/11/06 08:40:29;;;;;;;27.38;9.63;;;;;;;28.81;47.10;99003.06;4798515;29;20055;-59
2022/11/06 08:43:18;;;;;;;21.45;8.80;;;;;;;28.75;47.45;99015.44;4797494;29;20459;-59
2022/11/06 08:46:15;;;;;;;24.15;8.27;;;;;;;28.56;48.10;99016.56;4800832;29;20059;-57
2022/11/06 08:48:50;;;;;;;18.08;8.65;;;;;;;28.68;47.73;99005.69;4466076;29;10000287;-58
2022/11/06 08:51:40;;;;;;;18.83;8.63;;;;;;;28.85;47.06;99009.53;4779222;29;20046;-55
2022/11/06 08:54:22;;;;;;;17.20;8.32;;;;;;;28.73;47.36;99003.91;4791699;29;20062;-59
2022/11/06 08:57:11;;;;;;;20.90;9.02;;;;;;;28.47;46.85;99008.28;4794485;29;20146;-57
2022/11/06 09:00:00;;;;;;;19.20;9.55;;;;;;;28.73;47.13;99006.66;4796468;29;20047;-58
2022/11/06 09:02:43;;;;;;;23.00;10.02;;;;;;;28.74;46.82;99011.88;4796178;29;20047;-55
2022/11/06 09:05:33;;;;;;;19.50;9.65;;;;;;;28.90;45.21;99001.09;4797054;29;20059;-55
2022/11/06 09:08:16;;;;;;;22.80;9.88;;;;;;;28.75;45.67;99005.19;4781864;29;21436;-59
2022/11/06 09:11:06;;;;;;;16.98;9.38;;;;;;;28.74;46.55;99000.81;4798388;29;20053;-58
2022/11/06 09:13:48;;;;;;;21.85;8.65;;;;;;;28.81;45.40;99003.06;4795682;29;20069;-56
2022/11/06 09:16:37;;;;;;;20.77;8.32;;;;;;;28.19;46.05;99001.47;4792330;29;20062;-58
2022/11/06 09:19:27;;;;;;;21.13;9.63;;;;;;;28.28;47.79;98991.25;4792385;29;20055;-58
2022/11/06 09:22:09;;;;;;;25.60;9.82;;;;;;;28.38;47.24;98996.44;4790403;29;20062;-59
2022/11/06 09:24:59;;;;;;;21.60;9.80;;;;;;;28.09;46.99;98991.56;4797986;29;20443;-58
2022/11/06 09:27:56;;;;;;;20.02;10.20;;;;;;;28.05;47.73;98987.81;4765719;29;20505;-56
2022/11/06 09:30:39;;;;;;;18.85;10.00;;;;;;;28.46;47.58;98994.81;4797946;29;20502;-59
2022/11/06 09:33:28;;;;;;;25.55;10.93;;;;;;;28.44;46.50;98995.13;4799111;29;20066;-58
2022/11/06 09:36:24;;;;;;;23.42;9.68;;;;;;;28.38;45.56;98981.81;4796540;29;20047;-55
2022/11/06 09:38:59;;;;;;;24.05;9.82;;;;;;;28.75;46.63;98980.31;4795851;29;20054;-60
2022/11/06 09:42:08;;;;;;;15.77;9.68;;;;;;;28.99;45.34;98981.75;4801674;29;20072;-59
2022/11/06 09:45:30;;;;;;;18.88;9.85;;;;;;;28.86;46.06;98984.38;4797147;29;20131;-58
2022/11/06 09:48:32;;;;;;;20.70;10.32;;;;;;;28.80;44.56;98980.16;4738385;30;20065;-56
2022/11/06 09:51:21;;;;;;;21.38;10.32;;;;;;;28.94;44.58;98985.47;4737211;30;20052;-59
2022/11/06 09:54:25;;;;;;;31.27;12.30;;;;;;;28.52;42.93;98971.44;4794633;29;20112;-54
2022/11/06 09:57:25;;;;;;;16.73;10.63;;;;;;;29.04;44.07;98974.09;4800950;29;20133;-62
2022/11/06 10:00:11;;;;;;;22.63;11.63;;;;;;;29.42;45.53;98962.22;4794154;29;20158;-58
2022/11/06 10:03:09;;;;;;;23.77;11.18;;;;;;;29.24;45.46;98961.50;4795997;29;20107;-59
2022/11/06 10:05:58;;;;;;;23.42;10.52;;;;;;;29.27;45.11;98960.00;4788765;29;20055;-61
2022/11/06 10:08:48;;;;;;;32.25;10.57;;;;;;;29.26;45.21;98956.44;4795903;29;20135;-54
2022/11/06 10:12:25;;;;;;;22.70;10.73;;;;;;;29.24;43.71;98953.22;4793390;29;20501;-54
2022/11/06 10:15:10;;;;;;;21.23;10.77;;;;;;;28.94;46.32;98955.09;4782309;29;20062;-60
2022/11/06 10:18:11;;;;;;;23.73;11.13;;;;;;;28.87;45.27;98949.25;4790878;29;20050;-60
2022/11/06 10:20:59;;;;;;;20.95;9.55;;;;;;;28.74;46.62;98953.03;4796061;29;20051;-61
2022/11/06 10:24:02;;;;;;;;;;;;;;;28.79;46.09;98945.38;4795273;29;20112;-55
2022/11/06 10:26:54;;;;;;;21.95;10.55;;;;;;;28.74;49.28;98936.47;4793625;29;20643;-54
2022/11/06 10:29:49;;;;;;;28.42;10.88;;;;;;;28.70;49.18;98930.81;4790216;29;20174;-57
2022/11/06 10:33:04;;;;;;;23.13;9.95;;;;;;;28.65;47.81;98922.69;4792675;29;20062;-58
2022/11/06 10:36:06;;;;;;;24.45;9.38;;;;;;;28.40;48.25;98927.09;4777157;29;20055;-55
2022/11/06 10:38:57;;;;;;;28.65;13.30;;;;;;;28.35;49.01;98918.97;4793977;29;20050;-53
2022/11/06 10:41:48;;;;;;;24.08;10.77;;;;;;;28.33;49.04;98916.53;4797995;29;20111;-54
2022/11/06 10:45:01;;;;;;;28.63;12.57;;;;;;;28.47;50.80;98913.59;4780707;29;20124;-50
2022/11/06 10:48:24;;;;;;;24.88;10.75;;;;;;;28.17;48.92;98909.94;4778654;29;20047;-51
2022/11/06 10:51:44;;;;;;;31.67;12.15;;;;;;;28.36;50.84;98904.06;4795037;29;20124;-55
2022/11/06 10:54:39;;;;;;;28.00;11.00;;;;;;;28.15;50.56;98904.72;4795030;29;20067;-57
2022/11/06 10:57:59;;;;;;;25.10;12.15;;;;;;;27.89;45.46;98902.78;4775069;29;20444;-60
2022/11/06 11:00:43;;;;;;;24.83;11.60;;;;;;;28.18;49.32;98903.25;4761801;29;20047;-62
2022/11/06 11:03:50;;;;;;;29.05;11.73;;;;;;;28.14;49.81;98892.06;4792370;29;20067;-62
2022/11/06 11:06:26;;;;;;;26.35;11.57;;;;;;;28.03;50.02;98896.28;4790949;29;20057;-62
2022/11/06 11:09:33;;;;;;;24.05;11.02;;;;;;;28.25;51.47;98892.53;4789843;29;20138;-61
2022/11/06 11:12:32;;;;;;;20.95;9.77;;;;;;;28.28;49.02;98887.19;4787593;29;20086;-61
2022/11/06 11:15:25;;;;;;;19.27;10.35;;;;;;;28.09;48.49;98892.25;4792619;29;20528;-62
2022/11/06 11:18:33;;;;;;;22.58;9.85;;;;;;;27.91;48.40;98897.75;4787503;29;20086;-61
2022/11/06 11:21:26;;;;;;;25.23;11.30;;;;;;;27.89;49.75;98896.44;4791378;29;20051;-61
2022/11/06 11:24:16;;;;;;;22.13;10.55;;;;;;;27.91;48.74;98894.19;4797418;29;20074;-64
2022/11/06 11:27:13;;;;;;;26.10;10.13;;;;;;;27.96;50.51;98894.03;4797196;29;20055;-64
2022/11/06 11:29:49;;;;;;;24.80;10.80;;;;;;;27.94;50.53;98893.53;4796056;29;20116;-62
2022/11/06 11:32:44;;;;;;;23.02;10.32;;;;;;;27.82;47.61;98901.59;4798040;29;20081;-62
2022/11/06 11:35:26;;;;;;;21.65;10.82;;;;;;;27.63;49.97;98896.41;4791540;29;20059;-62
2022/11/06 11:38:17;;;;;;;19.80;10.32;;;;;;;27.45;50.98;98898.34;4784136;29;20049;-61
2022/11/06 11:41:28;;;;;;;32.20;11.25;;;;;;;27.39;50.00;98900.44;4806808;29;20062;-62
2022/11/06 11:44:19;;;;;;;24.80;10.85;;;;;;;27.23;50.70;98901.97;4785255;29;20431;-63
2022/11/06 11:47:01;;;;;;;17.60;10.30;;;;;;;27.02;51.69;98907.25;4798331;29;20137;-64
2022/11/06 11:49:50;;;;;;;30.27;12.23;;;;;;;27.02;52.74;98901.75;4776151;29;20524;-67
2022/11/06 11:52:39;;;;;;;25.73;11.32;;;;;;;26.91;52.66;98896.53;4803173;29;20132;-65
2022/11/06 11:55:29;;;;;;;24.90;11.10;;;;;;;27.03;53.58;98889.59;4794830;29;20111;-59
2022/11/06 11:58:32;;;;;;;25.42;11.40;;;;;;;27.13;51.26;98894.81;4803748;29;20070;-58
2022/11/06 12:01:37;;;;;;;26.02;12.48;;;;;;;27.10;54.00;98893.50;4793211;29;20066;-60
2022/11/06 12:04:42;;;;;;;25.02;11.52;;;;;;;27.15;53.09;98890.63;4793827;29;20125;-64
2022/11/06 12:07:45;;;;;;;23.45;10.60;;;;;;;27.34;52.18;98884.03;4802515;29;20096;-55
2022/11/06 12:10:43;;;;;;;18.50;10.27;;;;;;;27.19;53.55;98889.97;4779910;29;20610;-59
2022/11/06 12:13:32;;;;;;;25.02;9.90;;;;;;;27.17;50.86;98878.47;4464604;29;10000104;-65
2022/11/06 12:16:24;;;;;;;20.05;9.85;;;;;;;27.24;54.40;98879.59;4794040;29;20073;-67
2022/11/06 12:19:14;;;;;;;28.45;11.13;;;;;;;27.28;53.53;98874.31;4790929;29;20050;-67
2022/11/06 12:22:04;;;;;;;29.00;11.60;;;;;;;27.19;53.08;98884.47;4795284;29;20066;-63
2022/11/06 12:25:15;;;;;;;22.83;9.43;;;;;;;27.23;54.99;98886.28;4793338;29;20078;-59
2022/11/06 12:28:12;;;;;;;27.30;9.05;;;;;;;27.22;54.04;98890.13;4785920;29;20054;-62
2022/11/06 12:31:15;;;;;;;20.77;9.95;;;;;;;27.24;54.80;98887.06;4792133;29;20062;-68
2022/11/06 12:34:12;;;;;;;20.23;9.88;;;;;;;27.19;53.91;98895.47;4765208;29;20051;-60
2022/11/06 12:37:23;;;;;;;25.52;10.85;;;;;;;26.98;54.23;98896.06;4794774;29;20069;-67
2022/11/06 12:40:26;;;;;;;28.70;11.85;;;;;;;26.69;52.53;98899.34;4788651;29;20546;-66
2022/11/06 12:43:20;;;;;;;31.50;11.90;;;;;;;26.41;53.68;98899.50;4782591;29;20047;-66
2022/11/06 12:46:20;;;;;;;31.88;12.77;;;;;;;26.26;55.79;98903.44;4804740;29;20161;-70
2022/11/06 12:49:42;;;;;;;32.63;12.98;;;;;;;26.23;55.77;98906.81;4766006;29;20061;-63
2022/11/06 12:52:51;;;;;;;23.90;10.57;;;;;;;26.35;55.65;98918.06;4794131;29;20057;-60
2022/11/06 12:55:42;;;;;;;36.47;14.00;;;;;;;26.27;58.71;98916.06;4793858;29;20069;-56
2022/11/06 12:59:04;;;;;;;30.42;11.05;;;;;;;26.87;58.47;98922.28;4775138;29;20158;-61
2022/11/06 13:02:21;;;;;;;25.70;12.35;;;;;;;26.90;55.87;98925.22;4794457;29;20061;-62
2022/11/06 13:05:22;;;;;;;22.77;11.50;;;;;;;26.95;55.45;98938.00;4792019;29;20772;-65
2022/11/06 13:08:29;;;;;;;29.50;12.85;;;;;;;26.97;57.49;98937.69;4793093;29;20182;-66
2022/11/06 13:11:42;;;;;;;21.92;11.43;;;;;;;27.14;57.36;98938.56;4789910;29;20065;-62
2022/11/06 13:14:31;;;;;;;20.48;12.35;;;;;;;26.98;57.54;98940.16;4786471;29;20062;-60
2022/11/06 13:17:25;;;;;;;30.30;13.35;;;;;;;26.87;57.57;98944.31;4790056;29;20116;-64
2022/11/06 13:20:22;;;;;;;24.33;12.75;;;;;;;26.97;57.52;98952.28;4786175;29;20050;-67
2022/11/06 13:23:24;;;;;;;19.05;10.40;;;;;;;27.09;57.93;98958.00;4790109;29;20059;-69
2022/11/06 13:26:19;;;;;;;22.50;12.60;;;;;;;27.00;58.00;98957.16;4796671;29;20470;-62
2022/11/06 13:29:21;;;;;;;29.80;11.57;;;;;;;27.10;58.42;98964.34;4780493;29;20127;-65
2022/11/06 13:32:00;;;;;;;26.55;14.00;;;;;;;27.14;57.72;98957.88;4796840;29;20054;-60
2022/11/06 13:34:59;;;;;;;31.13;13.25;;;;;;;26.92;58.55;98964.25;4797411;29;20059;-61
2022/11/06 13:37:38;;;;;;;22.55;12.60;;;;;;;26.92;57.93;98964.25;4799403;29;20540;-68
2022/11/06 13:40:30;;;;;;;27.33;13.95;;;;;;;26.87;57.29;98966.34;4801148;29;20070;-67